logo
Search for airport 
image banner adimage banner adimage banner ad
image banner ad

EPKB - Kazimierz Biskupi

Located in , Poland

ICAO - EPKB, IATA -

Data provided by Airmate  

General information

Coordinates: N52°19'9" E18°10'4"
Elevation is 362 feet MSL.
 
View others Airports in Greater Poland

Operational data

Special qualification required
Current time UTC:
Current local time:
Weather at : EPPW - Powidz ( 22 km )
TAF: TAF EPPW 281100Z 2812/2824 32008KT 5000 BR BKN007 OVC014 PROB30 TEMPO 2812/2817 2000 -DZRA BR BKN004 BECMG 2820/2822 BKN020
View NOTAMs / SUP AIP / TFR affecting this airport [VIEW]
Communications frequencies: [VIEW]

Runways:

RWY identifierQFULength (ft)Width (ft)SurfaceLDA (ft)
09203489ASPH2034
27203489ASPH2034

Airport contact information

Address: Poland

Satellite view of EPKB